Terminal Aerodrome Forecast
Issued by NWS Grand Rapids, MI

Home | Current Version | Previous Version | Text Only | Print | Product List | Glossary On
Versions: 1 2 3 4 5 6 7 8 9 10 11 12 13 14 15 16 17 18 19 20 21 22
000
FTUS43 KGRR 062000 AAA
TAFGRR
TAF AMD
KGRR 062017Z 0620/0718 21012G23KT P6SM SCT130 BKN220
     FM070300 23013KT 3SM -SN BR OVC020
     FM070700 25012G18KT P6SM OVC025=

USA.gov is the U.S. government's official web portal to all federal, state and local government web resources and services.